sensor_id;sensor_type;location;lat;lon;timestamp;P1;durP1;ratioP1;P2;durP2;ratioP2
53411;SDS011;39307;52.870;13.660;2023-11-19T00:02:23;52.05;;;16.92;;
53411;SDS011;39307;52.870;13.660;2023-11-19T00:04:49;45.70;;;14.95;;
53411;SDS011;39307;52.870;13.660;2023-11-19T00:07:15;37.80;;;14.05;;
53411;SDS011;39307;52.870;13.660;2023-11-19T00:09:41;24.33;;;9.50;;
53411;SDS011;39307;52.870;13.660;2023-11-19T00:12:08;24.25;;;10.77;;
53411;SDS011;39307;52.870;13.660;2023-11-19T00:14:34;16.60;;;9.00;;
53411;SDS011;39307;52.870;13.660;2023-11-19T00:17:00;16.33;;;8.82;;
53411;SDS011;39307;52.870;13.660;2023-11-19T00:19:27;18.55;;;8.70;;
53411;SDS011;39307;52.870;13.660;2023-11-19T00:21:53;12.13;;;6.75;;
53411;SDS011;39307;52.870;13.660;2023-11-19T00:24:19;12.10;;;7.43;;
53411;SDS011;39307;52.870;13.660;2023-11-19T00:26:46;10.85;;;6.85;;
53411;SDS011;39307;52.870;13.660;2023-11-19T00:29:12;14.50;;;7.60;;
53411;SDS011;39307;52.870;13.660;2023-11-19T00:31:38;11.77;;;7.15;;
53411;SDS011;39307;52.870;13.660;2023-11-19T00:34:04;12.63;;;7.78;;
53411;SDS011;39307;52.870;13.660;2023-11-19T00:36:31;10.93;;;6.80;;
53411;SDS011;39307;52.870;13.660;2023-11-19T00:38:58;11.25;;;6.88;;
53411;SDS011;39307;52.870;13.660;2023-11-19T00:41:24;9.38;;;5.97;;
53411;SDS011;39307;52.870;13.660;2023-11-19T00:43:50;10.18;;;6.75;;
53411;SDS011;39307;52.870;13.660;2023-11-19T00:46:16;10.88;;;6.43;;
53411;SDS011;39307;52.870;13.660;2023-11-19T00:48:42;10.37;;;6.73;;
53411;SDS011;39307;52.870;13.660;2023-11-19T00:51:11;11.30;;;6.90;;
53411;SDS011;39307;52.870;13.660;2023-11-19T00:53:37;13.10;;;7.40;;
53411;SDS011;39307;52.870;13.660;2023-11-19T00:56:04;12.50;;;6.47;;
53411;SDS011;39307;52.870;13.660;2023-11-19T00:58:30;11.43;;;6.47;;
53411;SDS011;39307;52.870;13.660;2023-11-19T01:00:57;11.93;;;6.88;;
53411;SDS011;39307;52.870;13.660;2023-11-19T01:03:23;11.25;;;7.32;;
53411;SDS011;39307;52.870;13.660;2023-11-19T01:05:49;12.15;;;7.47;;
53411;SDS011;39307;52.870;13.660;2023-11-19T01:08:15;10.98;;;7.03;;
53411;SDS011;39307;52.870;13.660;2023-11-19T01:10:41;10.38;;;6.95;;
53411;SDS011;39307;52.870;13.660;2023-11-19T01:13:08;11.93;;;6.87;;
53411;SDS011;39307;52.870;13.660;2023-11-19T01:15:34;9.80;;;6.95;;
53411;SDS011;39307;52.870;13.660;2023-11-19T01:18:00;11.75;;;7.63;;
53411;SDS011;39307;52.870;13.660;2023-11-19T01:20:26;13.60;;;7.85;;
53411;SDS011;39307;52.870;13.660;2023-11-19T01:22:53;10.07;;;6.95;;
53411;SDS011;39307;52.870;13.660;2023-11-19T01:25:19;11.60;;;7.32;;
53411;SDS011;39307;52.870;13.660;2023-11-19T01:27:45;11.80;;;7.55;;
53411;SDS011;39307;52.870;13.660;2023-11-19T01:30:11;11.70;;;7.28;;
53411;SDS011;39307;52.870;13.660;2023-11-19T01:32:38;11.93;;;7.35;;
53411;SDS011;39307;52.870;13.660;2023-11-19T01:35:05;11.10;;;7.18;;
53411;SDS011;39307;52.870;13.660;2023-11-19T01:37:31;11.43;;;7.57;;
53411;SDS011;39307;52.870;13.660;2023-11-19T01:39:57;10.07;;;6.97;;
53411;SDS011;39307;52.870;13.660;2023-11-19T01:42:24;10.45;;;7.25;;
53411;SDS011;39307;52.870;13.660;2023-11-19T01:44:59;11.05;;;7.07;;
53411;SDS011;39307;52.870;13.660;2023-11-19T01:47:30;14.57;;;7.60;;
53411;SDS011;39307;52.870;13.660;2023-11-19T01:49:56;13.65;;;7.00;;
53411;SDS011;39307;52.870;13.660;2023-11-19T01:52:22;11.33;;;7.53;;
53411;SDS011;39307;52.870;13.660;2023-11-19T01:54:49;12.88;;;7.30;;
53411;SDS011;39307;52.870;13.660;2023-11-19T01:57:16;11.98;;;7.30;;
53411;SDS011;39307;52.870;13.660;2023-11-19T01:59:42;12.02;;;7.45;;
53411;SDS011;39307;52.870;13.660;2023-11-19T02:02:09;14.13;;;7.95;;
53411;SDS011;39307;52.870;13.660;2023-11-19T02:04:35;13.05;;;7.88;;
53411;SDS011;39307;52.870;13.660;2023-11-19T02:07:01;12.13;;;7.70;;
53411;SDS011;39307;52.870;13.660;2023-11-19T02:09:28;14.05;;;8.05;;
53411;SDS011;39307;52.870;13.660;2023-11-19T02:11:54;10.98;;;7.55;;
53411;SDS011;39307;52.870;13.660;2023-11-19T02:14:22;11.23;;;7.50;;
53411;SDS011;39307;52.870;13.660;2023-11-19T02:16:51;12.80;;;7.90;;
53411;SDS011;39307;52.870;13.660;2023-11-19T02:19:20;12.10;;;7.65;;
53411;SDS011;39307;52.870;13.660;2023-11-19T02:21:46;12.27;;;7.90;;
53411;SDS011;39307;52.870;13.660;2023-11-19T02:24:14;13.60;;;8.23;;
53411;SDS011;39307;52.870;13.660;2023-11-19T02:26:45;13.13;;;8.43;;
53411;SDS011;39307;52.870;13.660;2023-11-19T02:29:13;12.75;;;8.73;;
53411;SDS011;39307;52.870;13.660;2023-11-19T02:31:40;13.10;;;8.60;;
53411;SDS011;39307;52.870;13.660;2023-11-19T02:34:06;13.02;;;8.50;;
53411;SDS011;39307;52.870;13.660;2023-11-19T02:36:32;14.27;;;9.07;;
53411;SDS011;39307;52.870;13.660;2023-11-19T02:38:58;15.27;;;8.93;;
53411;SDS011;39307;52.870;13.660;2023-11-19T02:41:24;15.48;;;9.18;;
53411;SDS011;39307;52.870;13.660;2023-11-19T02:43:51;13.07;;;8.97;;
53411;SDS011;39307;52.870;13.660;2023-11-19T02:46:17;12.10;;;7.95;;
53411;SDS011;39307;52.870;13.660;2023-11-19T02:48:43;13.70;;;8.25;;
53411;SDS011;39307;52.870;13.660;2023-11-19T02:51:09;15.27;;;8.60;;
53411;SDS011;39307;52.870;13.660;2023-11-19T02:53:36;13.55;;;8.85;;
53411;SDS011;39307;52.870;13.660;2023-11-19T02:56:03;12.48;;;8.13;;
53411;SDS011;39307;52.870;13.660;2023-11-19T02:58:29;13.07;;;8.83;;
53411;SDS011;39307;52.870;13.660;2023-11-19T03:00:55;13.48;;;8.55;;
53411;SDS011;39307;52.870;13.660;2023-11-19T03:03:22;14.38;;;8.63;;
53411;SDS011;39307;52.870;13.660;2023-11-19T03:05:51;14.23;;;8.32;;
53411;SDS011;39307;52.870;13.660;2023-11-19T03:08:17;12.40;;;8.13;;
53411;SDS011;39307;52.870;13.660;2023-11-19T03:10:43;11.82;;;7.97;;
53411;SDS011;39307;52.870;13.660;2023-11-19T03:13:11;12.98;;;8.85;;
53411;SDS011;39307;52.870;13.660;2023-11-19T03:15:38;13.40;;;8.60;;
53411;SDS011;39307;52.870;13.660;2023-11-19T03:18:07;12.50;;;8.40;;
53411;SDS011;39307;52.870;13.660;2023-11-19T03:20:33;12.57;;;8.77;;
53411;SDS011;39307;52.870;13.660;2023-11-19T03:22:59;14.63;;;9.35;;
53411;SDS011;39307;52.870;13.660;2023-11-19T03:25:27;16.33;;;10.13;;
53411;SDS011;39307;52.870;13.660;2023-11-19T03:27:53;17.42;;;10.77;;
53411;SDS011;39307;52.870;13.660;2023-11-19T03:30:19;15.55;;;10.13;;
53411;SDS011;39307;52.870;13.660;2023-11-19T03:32:45;15.93;;;10.23;;
53411;SDS011;39307;52.870;13.660;2023-11-19T03:35:11;15.80;;;10.48;;
53411;SDS011;39307;52.870;13.660;2023-11-19T03:37:38;15.85;;;10.02;;
53411;SDS011;39307;52.870;13.660;2023-11-19T03:40:04;17.40;;;10.13;;
53411;SDS011;39307;52.870;13.660;2023-11-19T03:42:31;15.95;;;9.48;;
53411;SDS011;39307;52.870;13.660;2023-11-19T03:44:57;13.50;;;8.65;;
53411;SDS011;39307;52.870;13.660;2023-11-19T03:47:24;14.07;;;8.25;;
53411;SDS011;39307;52.870;13.660;2023-11-19T03:49:50;12.52;;;7.97;;
53411;SDS011;39307;52.870;13.660;2023-11-19T03:52:17;12.13;;;7.68;;
53411;SDS011;39307;52.870;13.660;2023-11-19T03:54:43;14.60;;;7.90;;
53411;SDS011;39307;52.870;13.660;2023-11-19T03:57:10;14.43;;;9.75;;
53411;SDS011;39307;52.870;13.660;2023-11-19T03:59:36;13.15;;;8.70;;
53411;SDS011;39307;52.870;13.660;2023-11-19T04:02:02;14.63;;;8.25;;
53411;SDS011;39307;52.870;13.660;2023-11-19T04:04:28;12.85;;;8.15;;
53411;SDS011;39307;52.870;13.660;2023-11-19T04:06:55;14.93;;;8.18;;
53411;SDS011;39307;52.870;13.660;2023-11-19T04:09:21;15.25;;;9.00;;
53411;SDS011;39307;52.870;13.660;2023-11-19T04:11:48;16.23;;;10.43;;
53411;SDS011;39307;52.870;13.660;2023-11-19T04:14:14;12.23;;;8.57;;
53411;SDS011;39307;52.870;13.660;2023-11-19T04:16:40;20.67;;;12.35;;
53411;SDS011;39307;52.870;13.660;2023-11-19T04:19:07;21.75;;;13.95;;
53411;SDS011;39307;52.870;13.660;2023-11-19T04:21:33;26.83;;;16.77;;
53411;SDS011;39307;52.870;13.660;2023-11-19T04:23:59;19.45;;;12.93;;
53411;SDS011;39307;52.870;13.660;2023-11-19T04:26:25;19.58;;;12.40;;
53411;SDS011;39307;52.870;13.660;2023-11-19T04:28:51;17.83;;;11.70;;
53411;SDS011;39307;52.870;13.660;2023-11-19T04:31:18;17.15;;;11.15;;
53411;SDS011;39307;52.870;13.660;2023-11-19T04:33:44;17.63;;;11.15;;
53411;SDS011;39307;52.870;13.660;2023-11-19T04:36:10;13.65;;;9.45;;
53411;SDS011;39307;52.870;13.660;2023-11-19T04:38:37;12.53;;;8.77;;
53411;SDS011;39307;52.870;13.660;2023-11-19T04:41:03;12.05;;;8.10;;
53411;SDS011;39307;52.870;13.660;2023-11-19T04:43:30;14.02;;;10.02;;
53411;SDS011;39307;52.870;13.660;2023-11-19T04:45:56;13.52;;;9.65;;
53411;SDS011;39307;52.870;13.660;2023-11-19T04:48:23;12.73;;;8.63;;
53411;SDS011;39307;52.870;13.660;2023-11-19T04:50:49;12.75;;;8.68;;
53411;SDS011;39307;52.870;13.660;2023-11-19T04:53:15;12.90;;;8.18;;
53411;SDS011;39307;52.870;13.660;2023-11-19T04:55:42;12.48;;;8.65;;
53411;SDS011;39307;52.870;13.660;2023-11-19T04:58:08;11.40;;;7.93;;
53411;SDS011;39307;52.870;13.660;2023-11-19T05:00:34;13.20;;;9.13;;
53411;SDS011;39307;52.870;13.660;2023-11-19T05:03:01;13.63;;;8.75;;
53411;SDS011;39307;52.870;13.660;2023-11-19T05:05:27;11.88;;;7.72;;
53411;SDS011;39307;52.870;13.660;2023-11-19T05:07:53;13.95;;;7.97;;
53411;SDS011;39307;52.870;13.660;2023-11-19T05:10:19;12.95;;;8.15;;
53411;SDS011;39307;52.870;13.660;2023-11-19T05:12:45;13.10;;;8.47;;
53411;SDS011;39307;52.870;13.660;2023-11-19T05:15:12;12.18;;;8.23;;
53411;SDS011;39307;52.870;13.660;2023-11-19T05:17:38;13.77;;;8.35;;
53411;SDS011;39307;52.870;13.660;2023-11-19T05:20:04;11.43;;;7.68;;
53411;SDS011;39307;52.870;13.660;2023-11-19T05:22:31;11.88;;;7.90;;
53411;SDS011;39307;52.870;13.660;2023-11-19T05:24:57;11.57;;;7.90;;
53411;SDS011;39307;52.870;13.660;2023-11-19T05:27:23;13.75;;;8.13;;
53411;SDS011;39307;52.870;13.660;2023-11-19T05:29:50;14.52;;;8.52;;
53411;SDS011;39307;52.870;13.660;2023-11-19T05:32:16;13.68;;;8.90;;
53411;SDS011;39307;52.870;13.660;2023-11-19T05:34:42;14.90;;;8.40;;
53411;SDS011;39307;52.870;13.660;2023-11-19T05:37:08;14.73;;;8.15;;
53411;SDS011;39307;52.870;13.660;2023-11-19T05:39:34;12.35;;;7.93;;
53411;SDS011;39307;52.870;13.660;2023-11-19T05:42:01;11.65;;;7.65;;
53411;SDS011;39307;52.870;13.660;2023-11-19T05:44:27;12.70;;;7.70;;
53411;SDS011;39307;52.870;13.660;2023-11-19T05:46:53;11.20;;;7.68;;
53411;SDS011;39307;52.870;13.660;2023-11-19T05:49:19;10.90;;;7.50;;
53411;SDS011;39307;52.870;13.660;2023-11-19T05:51:45;12.37;;;7.80;;
53411;SDS011;39307;52.870;13.660;2023-11-19T05:54:12;12.60;;;8.23;;
53411;SDS011;39307;52.870;13.660;2023-11-19T05:56:38;12.30;;;7.63;;
53411;SDS011;39307;52.870;13.660;2023-11-19T05:59:04;12.10;;;8.27;;
53411;SDS011;39307;52.870;13.660;2023-11-19T06:01:30;10.75;;;7.28;;
53411;SDS011;39307;52.870;13.660;2023-11-19T06:03:56;12.13;;;7.90;;
53411;SDS011;39307;52.870;13.660;2023-11-19T06:06:23;12.38;;;8.23;;
53411;SDS011;39307;52.870;13.660;2023-11-19T06:08:49;12.63;;;8.00;;
53411;SDS011;39307;52.870;13.660;2023-11-19T06:11:15;11.90;;;7.60;;
53411;SDS011;39307;52.870;13.660;2023-11-19T06:13:42;12.18;;;8.07;;
53411;SDS011;39307;52.870;13.660;2023-11-19T06:16:08;12.25;;;8.80;;
53411;SDS011;39307;52.870;13.660;2023-11-19T06:18:34;14.73;;;10.50;;
53411;SDS011;39307;52.870;13.660;2023-11-19T06:21:02;11.60;;;7.97;;
53411;SDS011;39307;52.870;13.660;2023-11-19T06:23:28;11.20;;;7.07;;
53411;SDS011;39307;52.870;13.660;2023-11-19T06:25:54;10.35;;;7.03;;
53411;SDS011;39307;52.870;13.660;2023-11-19T06:28:21;9.52;;;6.32;;
53411;SDS011;39307;52.870;13.660;2023-11-19T06:30:47;11.15;;;6.80;;
53411;SDS011;39307;52.870;13.660;2023-11-19T06:33:13;10.10;;;6.28;;
53411;SDS011;39307;52.870;13.660;2023-11-19T06:35:40;9.50;;;7.30;;
53411;SDS011;39307;52.870;13.660;2023-11-19T06:38:06;9.57;;;6.35;;
53411;SDS011;39307;52.870;13.660;2023-11-19T06:40:32;9.93;;;6.10;;
53411;SDS011;39307;52.870;13.660;2023-11-19T06:42:59;9.52;;;5.80;;
53411;SDS011;39307;52.870;13.660;2023-11-19T06:45:25;9.50;;;6.20;;
53411;SDS011;39307;52.870;13.660;2023-11-19T06:47:52;9.57;;;5.47;;
53411;SDS011;39307;52.870;13.660;2023-11-19T06:50:18;9.23;;;5.17;;
53411;SDS011;39307;52.870;13.660;2023-11-19T06:52:44;9.82;;;5.43;;
53411;SDS011;39307;52.870;13.660;2023-11-19T06:55:11;8.52;;;5.65;;
53411;SDS011;39307;52.870;13.660;2023-11-19T06:57:37;7.40;;;4.77;;
53411;SDS011;39307;52.870;13.660;2023-11-19T07:00:04;7.03;;;4.40;;
53411;SDS011;39307;52.870;13.660;2023-11-19T07:02:31;9.02;;;4.60;;
53411;SDS011;39307;52.870;13.660;2023-11-19T07:04:57;7.07;;;4.40;;
53411;SDS011;39307;52.870;13.660;2023-11-19T07:07:24;7.82;;;4.38;;
53411;SDS011;39307;52.870;13.660;2023-11-19T07:09:50;8.48;;;4.43;;
53411;SDS011;39307;52.870;13.660;2023-11-19T07:12:16;6.13;;;3.80;;
53411;SDS011;39307;52.870;13.660;2023-11-19T07:14:43;7.88;;;4.32;;
53411;SDS011;39307;52.870;13.660;2023-11-19T07:17:09;6.50;;;4.10;;
53411;SDS011;39307;52.870;13.660;2023-11-19T07:19:35;7.25;;;3.95;;
53411;SDS011;39307;52.870;13.660;2023-11-19T07:22:02;7.10;;;4.77;;
53411;SDS011;39307;52.870;13.660;2023-11-19T07:24:28;9.25;;;6.18;;
53411;SDS011;39307;52.870;13.660;2023-11-19T07:26:54;9.98;;;6.07;;
53411;SDS011;39307;52.870;13.660;2023-11-19T07:29:21;10.48;;;4.70;;
53411;SDS011;39307;52.870;13.660;2023-11-19T07:31:50;7.72;;;4.15;;
53411;SDS011;39307;52.870;13.660;2023-11-19T07:34:16;8.00;;;4.20;;
53411;SDS011;39307;52.870;13.660;2023-11-19T07:36:42;6.70;;;4.18;;
53411;SDS011;39307;52.870;13.660;2023-11-19T07:39:09;6.78;;;3.72;;
53411;SDS011;39307;52.870;13.660;2023-11-19T07:41:35;7.75;;;3.72;;
53411;SDS011;39307;52.870;13.660;2023-11-19T07:44:01;6.40;;;3.70;;
53411;SDS011;39307;52.870;13.660;2023-11-19T07:46:27;6.55;;;3.45;;
53411;SDS011;39307;52.870;13.660;2023-11-19T07:48:54;9.32;;;4.85;;
53411;SDS011;39307;52.870;13.660;2023-11-19T07:51:20;9.07;;;5.20;;
53411;SDS011;39307;52.870;13.660;2023-11-19T07:53:46;14.40;;;8.73;;
53411;SDS011;39307;52.870;13.660;2023-11-19T07:56:12;8.77;;;5.00;;
53411;SDS011;39307;52.870;13.660;2023-11-19T07:58:38;13.38;;;6.25;;
53411;SDS011;39307;52.870;13.660;2023-11-19T08:01:05;19.80;;;9.00;;
53411;SDS011;39307;52.870;13.660;2023-11-19T08:03:31;35.22;;;18.15;;
53411;SDS011;39307;52.870;13.660;2023-11-19T08:05:57;27.02;;;15.35;;
53411;SDS011;39307;52.870;13.660;2023-11-19T08:08:24;23.90;;;11.93;;
53411;SDS011;39307;52.870;13.660;2023-11-19T08:10:50;16.83;;;8.68;;
53411;SDS011;39307;52.870;13.660;2023-11-19T08:13:17;15.38;;;8.80;;
53411;SDS011;39307;52.870;13.660;2023-11-19T08:15:43;9.87;;;5.80;;
53411;SDS011;39307;52.870;13.660;2023-11-19T08:18:10;8.93;;;4.93;;
53411;SDS011;39307;52.870;13.660;2023-11-19T08:20:36;14.30;;;6.95;;
53411;SDS011;39307;52.870;13.660;2023-11-19T08:23:02;13.68;;;7.50;;
53411;SDS011;39307;52.870;13.660;2023-11-19T08:25:29;9.40;;;5.30;;
53411;SDS011;39307;52.870;13.660;2023-11-19T08:27:55;19.63;;;13.38;;
53411;SDS011;39307;52.870;13.660;2023-11-19T08:30:21;15.98;;;10.77;;
53411;SDS011;39307;52.870;13.660;2023-11-19T08:32:48;13.85;;;8.15;;
53411;SDS011;39307;52.870;13.660;2023-11-19T08:35:14;8.82;;;5.78;;
53411;SDS011;39307;52.870;13.660;2023-11-19T08:37:41;7.53;;;4.47;;
53411;SDS011;39307;52.870;13.660;2023-11-19T08:40:07;6.53;;;3.60;;
53411;SDS011;39307;52.870;13.660;2023-11-19T08:42:34;7.25;;;4.25;;
53411;SDS011;39307;52.870;13.660;2023-11-19T08:45:00;9.65;;;5.28;;
53411;SDS011;39307;52.870;13.660;2023-11-19T08:47:26;7.72;;;4.82;;
53411;SDS011;39307;52.870;13.660;2023-11-19T08:49:53;6.70;;;4.20;;
53411;SDS011;39307;52.870;13.660;2023-11-19T08:52:19;6.38;;;3.88;;
53411;SDS011;39307;52.870;13.660;2023-11-19T08:54:45;15.48;;;11.45;;
53411;SDS011;39307;52.870;13.660;2023-11-19T08:57:11;11.82;;;8.13;;
53411;SDS011;39307;52.870;13.660;2023-11-19T08:59:37;6.07;;;3.97;;
53411;SDS011;39307;52.870;13.660;2023-11-19T09:02:07;6.67;;;3.67;;
53411;SDS011;39307;52.870;13.660;2023-11-19T09:04:33;6.07;;;3.33;;
53411;SDS011;39307;52.870;13.660;2023-11-19T09:06:59;4.85;;;3.22;;
53411;SDS011;39307;52.870;13.660;2023-11-19T09:09:26;6.38;;;3.20;;
53411;SDS011;39307;52.870;13.660;2023-11-19T09:11:52;7.78;;;4.70;;
53411;SDS011;39307;52.870;13.660;2023-11-19T09:14:19;8.20;;;4.80;;
53411;SDS011;39307;52.870;13.660;2023-11-19T09:16:45;8.53;;;4.37;;
53411;SDS011;39307;52.870;13.660;2023-11-19T09:19:11;7.50;;;4.20;;
53411;SDS011;39307;52.870;13.660;2023-11-19T09:21:38;6.20;;;3.83;;
53411;SDS011;39307;52.870;13.660;2023-11-19T09:24:04;7.72;;;3.75;;
53411;SDS011;39307;52.870;13.660;2023-11-19T09:26:30;7.00;;;3.97;;
53411;SDS011;39307;52.870;13.660;2023-11-19T09:28:57;6.45;;;3.70;;
53411;SDS011;39307;52.870;13.660;2023-11-19T09:31:23;5.80;;;3.53;;
53411;SDS011;39307;52.870;13.660;2023-11-19T09:33:49;5.78;;;3.00;;
53411;SDS011;39307;52.870;13.660;2023-11-19T09:36:15;5.45;;;3.28;;
53411;SDS011;39307;52.870;13.660;2023-11-19T09:38:44;5.57;;;3.20;;
53411;SDS011;39307;52.870;13.660;2023-11-19T09:41:11;6.50;;;3.70;;
53411;SDS011;39307;52.870;13.660;2023-11-19T09:43:39;5.75;;;3.17;;
53411;SDS011;39307;52.870;13.660;2023-11-19T09:46:06;5.10;;;3.10;;
53411;SDS011;39307;52.870;13.660;2023-11-19T09:48:35;6.20;;;3.45;;
53411;SDS011;39307;52.870;13.660;2023-11-19T09:51:01;6.07;;;3.47;;
53411;SDS011;39307;52.870;13.660;2023-11-19T09:53:28;7.78;;;4.63;;
53411;SDS011;39307;52.870;13.660;2023-11-19T09:55:54;5.72;;;3.25;;
53411;SDS011;39307;52.870;13.660;2023-11-19T09:58:21;7.70;;;4.43;;
53411;SDS011;39307;52.870;13.660;2023-11-19T10:00:47;6.45;;;3.70;;
53411;SDS011;39307;52.870;13.660;2023-11-19T10:03:15;6.83;;;4.40;;
53411;SDS011;39307;52.870;13.660;2023-11-19T10:05:41;8.88;;;6.32;;
53411;SDS011;39307;52.870;13.660;2023-11-19T10:08:08;9.65;;;6.45;;
53411;SDS011;39307;52.870;13.660;2023-11-19T10:10:34;8.68;;;6.20;;
53411;SDS011;39307;52.870;13.660;2023-11-19T10:13:00;8.33;;;5.20;;
53411;SDS011;39307;52.870;13.660;2023-11-19T10:15:27;8.15;;;5.43;;
53411;SDS011;39307;52.870;13.660;2023-11-19T10:17:56;7.88;;;4.72;;
53411;SDS011;39307;52.870;13.660;2023-11-19T10:20:23;9.20;;;5.88;;
53411;SDS011;39307;52.870;13.660;2023-11-19T10:22:52;24.05;;;21.13;;
53411;SDS011;39307;52.870;13.660;2023-11-19T10:25:22;20.00;;;16.98;;
53411;SDS011;39307;52.870;13.660;2023-11-19T10:27:52;20.60;;;16.48;;
53411;SDS011;39307;52.870;13.660;2023-11-19T10:30:23;10.93;;;8.70;;
53411;SDS011;39307;52.870;13.660;2023-11-19T10:35:32;12.80;;;9.82;;
53411;SDS011;39307;52.870;13.660;2023-11-19T10:38:00;9.70;;;6.82;;
53411;SDS011;39307;52.870;13.660;2023-11-19T10:40:48;9.80;;;6.22;;
53411;SDS011;39307;52.870;13.660;2023-11-19T10:43:13;8.97;;;5.37;;
53411;SDS011;39307;52.870;13.660;2023-11-19T10:45:40;8.13;;;5.10;;
53411;SDS011;39307;52.870;13.660;2023-11-19T10:48:06;8.23;;;5.03;;
53411;SDS011;39307;52.870;13.660;2023-11-19T10:50:33;7.95;;;4.78;;
53411;SDS011;39307;52.870;13.660;2023-11-19T10:53:00;8.93;;;4.73;;
53411;SDS011;39307;52.870;13.660;2023-11-19T10:55:27;9.10;;;4.32;;
53411;SDS011;39307;52.870;13.660;2023-11-19T10:58:02;8.83;;;4.53;;
53411;SDS011;39307;52.870;13.660;2023-11-19T11:00:29;8.50;;;4.43;;
53411;SDS011;39307;52.870;13.660;2023-11-19T11:03:18;8.88;;;4.20;;
53411;SDS011;39307;52.870;13.660;2023-11-19T11:05:48;7.25;;;4.40;;
53411;SDS011;39307;52.870;13.660;2023-11-19T11:08:15;9.00;;;4.53;;
53411;SDS011;39307;52.870;13.660;2023-11-19T11:10:54;9.45;;;4.40;;
53411;SDS011;39307;52.870;13.660;2023-11-19T11:13:24;8.57;;;5.00;;
53411;SDS011;39307;52.870;13.660;2023-11-19T11:15:51;8.15;;;4.28;;
53411;SDS011;39307;52.870;13.660;2023-11-19T11:18:18;9.87;;;4.70;;
53411;SDS011;39307;52.870;13.660;2023-11-19T11:20:44;8.93;;;4.73;;
53411;SDS011;39307;52.870;13.660;2023-11-19T11:26:23;9.05;;;4.60;;
53411;SDS011;39307;52.870;13.660;2023-11-19T11:28:58;10.73;;;4.57;;
53411;SDS011;39307;52.870;13.660;2023-11-19T11:31:38;10.82;;;4.80;;
53411;SDS011;39307;52.870;13.660;2023-11-19T11:34:31;10.10;;;4.60;;
53411;SDS011;39307;52.870;13.660;2023-11-19T11:39:45;10.45;;;4.47;;
53411;SDS011;39307;52.870;13.660;2023-11-19T11:45:00;11.27;;;5.32;;
53411;SDS011;39307;52.870;13.660;2023-11-19T11:47:27;13.00;;;4.70;;
53411;SDS011;39307;52.870;13.660;2023-11-19T11:50:21;10.20;;;4.53;;
53411;SDS011;39307;52.870;13.660;2023-11-19T11:57:52;15.50;;;4.55;;
53411;SDS011;39307;52.870;13.660;2023-11-19T12:00:38;14.70;;;4.07;;
53411;SDS011;39307;52.870;13.660;2023-11-19T12:03:05;11.35;;;4.20;;
53411;SDS011;39307;52.870;13.660;2023-11-19T12:05:32;15.52;;;4.60;;
53411;SDS011;39307;52.870;13.660;2023-11-19T12:08:03;13.38;;;4.32;;
53411;SDS011;39307;52.870;13.660;2023-11-19T12:10:30;17.75;;;4.32;;
53411;SDS011;39307;52.870;13.660;2023-11-19T12:13:00;19.90;;;8.33;;
53411;SDS011;39307;52.870;13.660;2023-11-19T12:15:27;14.82;;;4.82;;
53411;SDS011;39307;52.870;13.660;2023-11-19T12:17:54;20.10;;;7.37;;
53411;SDS011;39307;52.870;13.660;2023-11-19T12:20:21;17.63;;;4.47;;
53411;SDS011;39307;52.870;13.660;2023-11-19T12:22:48;15.40;;;3.90;;
53411;SDS011;39307;52.870;13.660;2023-11-19T12:25:15;20.42;;;5.88;;
53411;SDS011;39307;52.870;13.660;2023-11-19T12:27:43;21.15;;;6.55;;
53411;SDS011;39307;52.870;13.660;2023-11-19T12:30:11;18.75;;;5.53;;
53411;SDS011;39307;52.870;13.660;2023-11-19T12:32:41;23.15;;;5.20;;
53411;SDS011;39307;52.870;13.660;2023-11-19T12:35:08;27.38;;;9.60;;
53411;SDS011;39307;52.870;13.660;2023-11-19T12:37:38;17.85;;;4.85;;
53411;SDS011;39307;52.870;13.660;2023-11-19T12:40:10;20.55;;;4.38;;
53411;SDS011;39307;52.870;13.660;2023-11-19T12:42:38;20.65;;;4.15;;
53411;SDS011;39307;52.870;13.660;2023-11-19T12:45:05;18.80;;;4.40;;
53411;SDS011;39307;52.870;13.660;2023-11-19T12:47:31;16.95;;;4.25;;
53411;SDS011;39307;52.870;13.660;2023-11-19T12:49:57;18.83;;;4.88;;
53411;SDS011;39307;52.870;13.660;2023-11-19T12:52:24;18.15;;;4.30;;
53411;SDS011;39307;52.870;13.660;2023-11-19T12:54:50;19.85;;;4.30;;
53411;SDS011;39307;52.870;13.660;2023-11-19T12:57:16;25.25;;;5.72;;
53411;SDS011;39307;52.870;13.660;2023-11-19T12:59:42;18.97;;;4.20;;
53411;SDS011;39307;52.870;13.660;2023-11-19T13:02:09;15.95;;;4.72;;
53411;SDS011;39307;52.870;13.660;2023-11-19T13:04:35;18.23;;;4.50;;
53411;SDS011;39307;52.870;13.660;2023-11-19T13:07:01;21.45;;;4.80;;
53411;SDS011;39307;52.870;13.660;2023-11-19T13:09:27;21.83;;;5.00;;
53411;SDS011;39307;52.870;13.660;2023-11-19T13:11:54;21.20;;;4.57;;
53411;SDS011;39307;52.870;13.660;2023-11-19T13:14:21;15.77;;;4.88;;
53411;SDS011;39307;52.870;13.660;2023-11-19T13:16:48;21.30;;;4.35;;
53411;SDS011;39307;52.870;13.660;2023-11-19T13:19:14;21.52;;;4.25;;
53411;SDS011;39307;52.870;13.660;2023-11-19T13:21:41;17.80;;;3.85;;
53411;SDS011;39307;52.870;13.660;2023-11-19T13:24:08;14.73;;;3.63;;
53411;SDS011;39307;52.870;13.660;2023-11-19T13:26:35;17.00;;;3.77;;
53411;SDS011;39307;52.870;13.660;2023-11-19T13:29:01;14.38;;;3.88;;
53411;SDS011;39307;52.870;13.660;2023-11-19T13:31:27;18.70;;;4.15;;
53411;SDS011;39307;52.870;13.660;2023-11-19T13:33:53;14.85;;;4.00;;
53411;SDS011;39307;52.870;13.660;2023-11-19T13:36:20;17.67;;;3.63;;
53411;SDS011;39307;52.870;13.660;2023-11-19T13:38:46;17.75;;;4.13;;
53411;SDS011;39307;52.870;13.660;2023-11-19T13:41:12;19.95;;;3.67;;
53411;SDS011;39307;52.870;13.660;2023-11-19T13:43:39;17.87;;;4.07;;
53411;SDS011;39307;52.870;13.660;2023-11-19T13:46:05;14.45;;;3.53;;
53411;SDS011;39307;52.870;13.660;2023-11-19T13:48:32;19.00;;;4.05;;
53411;SDS011;39307;52.870;13.660;2023-11-19T13:50:58;17.25;;;3.75;;
53411;SDS011;39307;52.870;13.660;2023-11-19T13:53:24;17.17;;;3.63;;
53411;SDS011;39307;52.870;13.660;2023-11-19T13:55:51;15.88;;;3.85;;
53411;SDS011;39307;52.870;13.660;2023-11-19T13:58:17;18.92;;;3.97;;
53411;SDS011;39307;52.870;13.660;2023-11-19T14:00:43;21.33;;;4.20;;
53411;SDS011;39307;52.870;13.660;2023-11-19T14:03:10;21.45;;;4.35;;
53411;SDS011;39307;52.870;13.660;2023-11-19T14:05:36;16.88;;;3.65;;
53411;SDS011;39307;52.870;13.660;2023-11-19T14:08:03;20.13;;;4.53;;
53411;SDS011;39307;52.870;13.660;2023-11-19T14:10:30;17.98;;;3.97;;
53411;SDS011;39307;52.870;13.660;2023-11-19T14:12:56;23.52;;;4.72;;
53411;SDS011;39307;52.870;13.660;2023-11-19T14:15:22;22.00;;;4.20;;
53411;SDS011;39307;52.870;13.660;2023-11-19T14:17:49;22.27;;;4.22;;
53411;SDS011;39307;52.870;13.660;2023-11-19T14:20:15;22.77;;;4.55;;
53411;SDS011;39307;52.870;13.660;2023-11-19T14:22:42;20.80;;;4.57;;
53411;SDS011;39307;52.870;13.660;2023-11-19T14:25:09;22.85;;;4.63;;
53411;SDS011;39307;52.870;13.660;2023-11-19T14:27:36;20.13;;;5.07;;
53411;SDS011;39307;52.870;13.660;2023-11-19T14:30:06;21.75;;;4.60;;
53411;SDS011;39307;52.870;13.660;2023-11-19T14:32:35;22.35;;;5.30;;
53411;SDS011;39307;52.870;13.660;2023-11-19T14:35:01;17.38;;;4.70;;
53411;SDS011;39307;52.870;13.660;2023-11-19T14:37:27;18.20;;;3.95;;
53411;SDS011;39307;52.870;13.660;2023-11-19T14:39:53;20.13;;;4.10;;